Time;durP1;ratioP1;P1;durP2;ratioP2;P2;SDS_P1;SDS_P2;PMS_P1;PMS_P2;Temp;Humidity;BMP_temperature;BMP_pressure;BME280_temperature;BME280_humidity;BME280_pressure;Samples;Min_cycle;Max_cycle;Signal;HPM_P1;HPM_P2
2023/05/30 00:00:19;;;;;;;11.60;3.42;;;;;;;12.44;72.12;102555.84;5186845;28;20484;-69
2023/05/30 00:02:51;;;;;;;11.65;2.88;;;;;;;12.41;72.45;102552.47;5183833;28;20034;-69
2023/05/30 00:05:22;;;;;;;14.60;4.15;;;;;;;12.32;73.39;102542.56;5189683;28;20457;-68
2023/05/30 00:07:54;;;;;;;12.65;2.70;;;;;;;12.37;72.98;102548.34;5189213;28;20023;-69
2023/05/30 00:10:26;;;;;;;9.85;2.55;;;;;;;12.27;75.05;102555.13;5187284;28;20664;-68
2023/05/30 00:12:57;;;;;;;8.18;2.58;;;;;;;12.30;73.02;102552.31;5190578;28;20033;-69
2023/05/30 00:15:28;;;;;;;14.60;3.22;;;;;;;12.29;75.55;102555.91;5188416;28;20093;-69
2023/05/30 00:18:00;;;;;;;11.05;2.97;;;;;;;12.23;76.95;102555.44;5187883;28;20415;-69
2023/05/30 00:20:33;;;;;;;11.82;2.85;;;;;;;12.19;76.63;102560.06;5188738;28;20041;-69
2023/05/30 00:23:04;;;;;;;;;;;;;;;12.82;70.56;102550.69;5189299;28;20057;-70
2023/05/30 00:25:37;;;;;;;10.30;2.70;;;;;;;12.17;77.58;102544.41;5189194;28;19997;-69
2023/05/30 00:28:09;;;;;;;13.87;3.70;;;;;;;12.07;78.91;102552.97;5187922;28;20042;-69
2023/05/30 00:30:41;;;;;;;10.57;2.40;;;;;;;12.04;79.02;102555.78;5186303;28;20054;-69
2023/05/30 00:33:12;;;;;;;12.45;2.90;;;;;;;11.98;80.24;102550.94;5186652;28;20410;-69
2023/05/30 00:35:44;;;;;;;10.90;3.13;;;;;;;11.96;80.57;102550.16;5187434;28;20039;-69
2023/05/30 00:38:15;;;;;;;12.00;3.20;;;;;;;11.90;81.61;102546.16;5186710;28;20452;-69
2023/05/30 00:40:46;;;;;;;13.57;2.90;;;;;;;11.86;82.44;102563.06;5188556;28;20420;-69
2023/05/30 00:43:18;;;;;;;14.27;3.83;;;;;;;11.93;83.45;102557.31;5184603;28;20023;-69
2023/05/30 00:45:53;;;;;;;12.15;3.33;;;;;;;11.91;83.00;102561.81;5189899;28;20038;-69
2023/05/30 00:48:24;;;;;;;13.40;2.92;;;;;;;11.79;83.82;102553.84;5186063;28;20034;-69
2023/05/30 00:50:56;;;;;;;13.35;2.70;;;;;;;11.82;84.43;102564.13;5185853;28;20031;-69
2023/05/30 00:53:28;;;;;;;13.13;2.80;;;;;;;11.71;86.06;102571.88;5188234;28;20495;-69
2023/05/30 00:55:59;;;;;;;15.23;3.20;;;;;;;11.67;86.11;102563.34;5188624;28;20215;-69
2023/05/30 00:58:31;;;;;;;12.75;3.30;;;;;;;11.71;87.15;102564.81;5189039;28;20113;-69
2023/05/30 01:01:02;;;;;;;13.48;3.05;;;;;;;11.57;87.05;102555.16;5183769;28;20041;-69
2023/05/30 01:03:35;;;;;;;12.98;2.75;;;;;;;11.71;87.61;102572.69;5185977;28;20056;-69
2023/05/30 01:06:06;;;;;;;13.57;3.47;;;;;;;11.67;87.79;102569.41;5182587;28;20048;-69
2023/05/30 01:08:37;;;;;;;13.30;2.75;;;;;;;11.66;87.53;102567.72;5186112;28;20038;-69
2023/05/30 01:11:32;;;;;;;14.20;2.50;;;;;;;11.81;87.72;102570.31;5169479;28;20040;-69
2023/05/30 01:14:17;;;;;;;12.13;3.15;;;;;;;11.72;88.77;102570.91;5188609;28;20088;-69
2023/05/30 01:17:02;;;;;;;13.80;3.33;;;;;;;11.80;88.46;102572.13;5187631;28;20499;-69
2023/05/30 01:20:12;;;;;;;12.45;3.45;;;;;;;11.80;87.51;102569.50;5188628;28;20081;-69
2023/05/30 01:22:56;;;;;;;12.38;3.13;;;;;;;11.71;87.52;102567.44;5184907;28;20045;-69
2023/05/30 01:25:52;;;;;;;15.50;3.25;;;;;;;11.67;89.72;102561.53;5187774;28;20042;-69
2023/05/30 01:28:28;;;;;;;11.85;3.53;;;;;;;11.56;90.10;102563.16;5181808;28;20779;-69
2023/05/30 01:31:00;;;;;;;12.48;3.17;;;;;;;11.53;90.61;102561.53;5186804;28;20381;-69
2023/05/30 01:33:33;;;;;;;12.45;2.75;;;;;;;11.50;90.14;102561.72;5185202;28;20030;-69
2023/05/30 01:36:06;;;;;;;12.15;2.95;;;;;;;11.53;91.48;102565.97;5187171;28;20045;-69
2023/05/30 01:38:37;;;;;;;13.57;3.40;;;;;;;11.51;90.54;102565.19;5185844;28;20769;-69
2023/05/30 01:41:19;;;;;;;15.77;2.97;;;;;;;11.53;90.89;102569.41;5185478;28;20031;-69
2023/05/30 01:44:01;;;;;;;13.13;2.70;;;;;;;11.59;90.41;102563.81;5189580;28;20468;-69
2023/05/30 01:46:33;;;;;;;12.10;3.28;;;;;;;11.36;92.20;102564.34;5185667;28;20153;-69
2023/05/30 01:49:15;;;;;;;9.77;2.88;;;;;;;11.58;91.14;102571.75;5188750;28;20036;-69
2023/05/30 01:52:10;;;;;;;13.25;3.13;;;;;;;11.71;89.93;102580.56;5185689;28;20039;-69
2023/05/30 01:54:45;;;;;;;13.98;3.53;;;;;;;11.51;91.37;102578.31;5184649;28;20062;-69
2023/05/30 01:57:16;;;;;;;16.88;3.85;;;;;;;11.39;92.09;102580.75;5187703;28;20032;-69
2023/05/30 01:59:49;;;;;;;17.50;3.50;;;;;;;11.32;92.75;102578.59;5182741;28;20034;-69
2023/05/30 02:02:21;;;;;;;16.85;4.15;;;;;;;11.35;92.46;102579.25;5179319;28;20117;-69
2023/05/30 02:04:52;;;;;;;11.77;3.55;;;;;;;11.32;93.05;102589.91;5185696;28;20492;-69
2023/05/30 02:07:23;;;;;;;14.88;3.58;;;;;;;11.27;93.09;102586.75;5187179;28;20032;-69
2023/05/30 02:09:54;;;;;;;10.27;3.20;;;;;;;11.31;93.18;102592.66;5185556;28;20069;-69
2023/05/30 02:12:26;;;;;;;13.77;3.63;;;;;;;11.29;92.83;102594.50;5181070;28;20037;-69
2023/05/30 02:14:57;;;;;;;8.27;3.05;;;;;;;11.19;93.54;102595.06;5189506;28;20034;-69
2023/05/30 02:17:29;;;;;;;12.48;3.38;;;;;;;11.14;95.20;102597.13;5184630;28;20038;-69
2023/05/30 02:20:00;;;;;;;12.25;2.75;;;;;;;11.12;95.03;102593.75;5187794;28;20112;-69
2023/05/30 02:22:31;;;;;;;16.30;3.80;;;;;;;11.11;95.75;102602.56;5187802;28;20442;-69
2023/05/30 02:25:03;;;;;;;15.20;3.30;;;;;;;11.11;95.79;102599.09;5191833;28;20105;-69
2023/05/30 02:27:34;;;;;;;15.10;3.47;;;;;;;11.08;96.03;102591.41;5191868;28;20026;-69
2023/05/30 02:30:06;;;;;;;11.13;3.08;;;;;;;11.04;96.21;102595.13;5188305;28;20026;-69
2023/05/30 02:32:37;;;;;;;13.32;3.28;;;;;;;11.06;96.30;102598.50;5190563;28;20400;-69
2023/05/30 02:35:09;;;;;;;17.25;3.35;;;;;;;11.01;96.77;102597.94;5185225;28;20082;-69
2023/05/30 02:37:41;;;;;;;16.50;4.15;;;;;;;10.97;97.55;102592.03;5190735;28;20081;-69
2023/05/30 02:40:12;;;;;;;20.92;4.03;;;;;;;10.96;97.53;102592.97;5190645;28;20077;-69
2023/05/30 02:42:44;;;;;;;14.27;3.55;;;;;;;11.03;97.46;102589.06;5192025;28;20441;-69
2023/05/30 02:45:15;;;;;;;15.75;2.88;;;;;;;10.96;97.46;102599.03;5191050;28;20033;-69
2023/05/30 02:47:46;;;;;;;13.57;3.20;;;;;;;10.93;97.88;102590.50;5187371;28;20041;-69
2023/05/30 02:50:18;;;;;;;13.52;3.97;;;;;;;10.86;97.70;102574.28;5188167;28;20579;-69
2023/05/30 02:52:49;;;;;;;14.73;3.55;;;;;;;10.85;98.85;102588.34;5188273;28;20033;-69
2023/05/30 02:55:20;;;;;;;20.73;5.57;;;;;;;10.82;100.00;102585.88;5192016;28;20395;-69
2023/05/30 02:57:52;;;;;;;15.75;3.55;;;;;;;10.77;99.79;102585.31;5189323;28;20030;-69
2023/05/30 03:00:23;;;;;;;13.07;3.38;;;;;;;10.77;100.00;102580.06;5188891;28;20113;-69
2023/05/30 03:02:55;;;;;;;13.35;3.35;;;;;;;10.72;100.00;102571.66;5188314;28;20065;-69
2023/05/30 03:05:28;;;;;;;19.40;3.92;;;;;;;10.73;100.00;102583.81;5190561;28;20034;-69
2023/05/30 03:07:59;;;;;;;15.30;3.20;;;;;;;10.71;100.00;102580.41;5184578;28;20031;-69
2023/05/30 03:10:31;;;;;;;16.15;4.00;;;;;;;10.67;100.00;102577.13;5189208;28;20475;-69
2023/05/30 03:13:02;;;;;;;11.07;3.17;;;;;;;10.66;100.00;102585.09;5190480;28;20034;-69
2023/05/30 03:15:33;;;;;;;15.75;3.78;;;;;;;10.70;100.00;102587.44;5187966;28;20035;-69
2023/05/30 03:18:05;;;;;;;11.70;3.13;;;;;;;10.69;100.00;102591.00;5189950;28;20026;-69
2023/05/30 03:20:36;;;;;;;14.15;3.40;;;;;;;10.68;100.00;102596.31;5189374;28;20168;-69
2023/05/30 03:23:07;;;;;;;15.40;3.80;;;;;;;10.65;100.00;102591.28;5188123;28;20442;-69
2023/05/30 03:25:39;;;;;;;16.98;4.00;;;;;;;10.65;100.00;102597.34;5188998;28;20386;-69
2023/05/30 03:28:10;;;;;;;13.60;3.60;;;;;;;10.69;100.00;102600.66;5191218;28;20039;-69
2023/05/30 03:30:42;;;;;;;11.82;3.50;;;;;;;10.65;100.00;102596.53;5189350;28;20026;-68
2023/05/30 03:33:13;;;;;;;14.10;3.85;;;;;;;10.75;100.00;102609.94;5184967;28;20026;-68
2023/05/30 03:35:45;;;;;;;13.35;3.40;;;;;;;10.76;100.00;102611.59;5189919;28;20113;-68
2023/05/30 03:38:16;;;;;;;15.38;3.47;;;;;;;10.75;100.00;102605.53;5187480;28;20126;-69
2023/05/30 03:40:47;;;;;;;15.95;3.50;;;;;;;10.79;100.00;102607.03;5188537;28;20042;-68
2023/05/30 03:43:18;;;;;;;11.48;3.42;;;;;;;10.82;100.00;102612.09;5188986;28;20117;-68
2023/05/30 03:45:50;;;;;;;17.95;4.30;;;;;;;10.85;100.00;102619.81;5189971;28;20034;-69
2023/05/30 03:48:21;;;;;;;16.88;4.57;;;;;;;10.85;100.00;102625.03;5183482;28;20027;-68
2023/05/30 03:50:52;;;;;;;15.10;4.18;;;;;;;10.88;100.00;102630.13;5188457;28;20145;-69
2023/05/30 03:53:23;;;;;;;19.58;4.50;;;;;;;10.90;100.00;102632.63;5189301;28;20027;-68
2023/05/30 03:55:55;;;;;;;15.10;3.70;;;;;;;10.92;100.00;102629.00;5188347;28;20034;-68
2023/05/30 03:58:26;;;;;;;15.05;4.15;;;;;;;10.96;100.00;102627.06;5189347;28;20064;-68
2023/05/30 04:01:00;;;;;;;9.98;3.22;;;;;;;10.99;100.00;102634.75;5187091;28;20031;-69
2023/05/30 04:03:31;;;;;;;20.48;3.92;;;;;;;11.03;100.00;102627.56;5183222;28;20057;-68
2023/05/30 04:06:05;;;;;;;13.93;3.42;;;;;;;11.09;100.00;102632.41;5188494;28;20053;-69
2023/05/30 04:08:37;;;;;;;14.65;3.60;;;;;;;11.11;100.00;102630.56;5173654;28;20022;-69
2023/05/30 04:11:08;;;;;;;14.65;3.92;;;;;;;11.17;100.00;102631.06;5186166;28;21166;-69
2023/05/30 04:13:40;;;;;;;11.52;3.20;;;;;;;11.17;100.00;102624.94;5188138;28;20034;-69
2023/05/30 04:16:11;;;;;;;18.42;4.00;;;;;;;11.21;100.00;102629.06;5188267;28;20027;-69
2023/05/30 04:18:43;;;;;;;11.38;3.67;;;;;;;11.29;100.00;102633.88;5182724;28;20029;-69
2023/05/30 04:21:15;;;;;;;13.18;3.88;;;;;;;11.29;100.00;102636.50;5187135;28;20479;-69
2023/05/30 04:23:46;;;;;;;12.63;4.15;;;;;;;11.28;100.00;102638.28;5189970;28;20062;-69
2023/05/30 04:26:17;;;;;;;12.93;3.97;;;;;;;11.33;100.00;102633.63;5189770;28;20018;-69
2023/05/30 04:28:50;;;;;;;13.02;3.70;;;;;;;11.34;100.00;102631.84;5188267;28;20029;-69
2023/05/30 04:31:22;;;;;;;9.95;3.58;;;;;;;11.37;100.00;102629.03;5186876;28;20463;-69
2023/05/30 04:33:55;;;;;;;14.77;3.80;;;;;;;11.40;100.00;102626.19;5180457;28;20484;-69
2023/05/30 04:36:27;;;;;;;12.17;4.07;;;;;;;11.43;100.00;102628.66;5189133;28;20054;-69
2023/05/30 04:38:58;;;;;;;18.35;3.60;;;;;;;11.46;100.00;102625.84;5190326;28;20710;-69
2023/05/30 04:41:30;;;;;;;14.73;3.72;;;;;;;11.57;99.37;102631.28;5186951;28;20034;-69
2023/05/30 04:44:02;;;;;;;16.85;4.03;;;;;;;11.57;99.84;102635.69;5189076;28;20512;-69
2023/05/30 04:46:33;;;;;;;12.32;3.85;;;;;;;11.63;98.99;102633.56;5185767;28;20109;-69
2023/05/30 04:49:05;;;;;;;15.40;4.10;;;;;;;11.65;98.95;102633.44;5188023;28;20578;-69
2023/05/30 04:51:37;;;;;;;16.70;3.97;;;;;;;11.76;99.35;102624.94;5187270;28;20038;-69
2023/05/30 04:54:08;;;;;;;14.07;3.88;;;;;;;11.77;97.56;102627.44;5189351;28;20409;-69
2023/05/30 04:56:40;;;;;;;13.07;3.75;;;;;;;11.87;97.54;102623.34;5187982;28;20034;-69
2023/05/30 04:59:11;;;;;;;14.95;4.30;;;;;;;11.83;96.71;102618.34;5187522;28;20466;-69
2023/05/30 05:01:44;;;;;;;16.08;4.47;;;;;;;11.87;96.60;102628.59;5182404;28;20034;-69
2023/05/30 05:04:15;;;;;;;10.88;4.22;;;;;;;11.88;96.49;102629.44;5186516;28;20027;-69
2023/05/30 05:06:46;;;;;;;18.95;4.70;;;;;;;12.02;96.68;102629.44;5188293;28;20022;-69
2023/05/30 05:09:20;;;;;;;15.88;4.60;;;;;;;12.04;96.49;102618.81;5188767;28;20030;-69
2023/05/30 05:11:53;;;;;;;13.73;3.67;;;;;;;12.04;96.48;102629.34;5189028;28;20034;-69
2023/05/30 05:14:24;;;;;;;15.43;4.38;;;;;;;12.08;96.12;102633.44;5182952;28;20058;-69
2023/05/30 05:16:57;;;;;;;15.30;4.00;;;;;;;12.02;94.99;102632.06;5188638;28;20126;-69
2023/05/30 05:19:28;;;;;;;11.87;4.00;;;;;;;12.12;95.23;102624.44;5175257;28;20030;-69
2023/05/30 05:21:59;;;;;;;11.27;3.70;;;;;;;12.08;93.60;102625.56;5179383;28;20829;-70
2023/05/30 05:24:31;;;;;;;13.20;4.47;;;;;;;12.16;95.38;102633.84;5186941;28;20584;-70
2023/05/30 05:27:02;;;;;;;16.65;4.60;;;;;;;12.15;94.52;102625.09;5186316;28;20537;-69
2023/05/30 05:29:33;;;;;;;11.65;4.65;;;;;;;12.22;93.38;102624.72;5188543;28;20061;-70
2023/05/30 05:32:05;;;;;;;16.40;4.15;;;;;;;12.32;93.22;102633.72;5181303;28;20034;-70
2023/05/30 05:34:37;;;;;;;13.32;4.20;;;;;;;12.31;93.53;102635.50;5186235;28;20038;-70
2023/05/30 05:37:08;;;;;;;11.13;3.83;;;;;;;12.39;91.16;102635.84;5183635;28;20033;-70
2023/05/30 05:39:39;;;;;;;13.13;4.45;;;;;;;12.48;90.42;102631.78;5188383;28;20030;-70
2023/05/30 05:42:11;;;;;;;14.35;4.20;;;;;;;12.49;90.76;102630.81;5184333;28;20157;-70
2023/05/30 05:44:42;;;;;;;14.63;4.32;;;;;;;12.63;91.49;102627.31;5188241;28;20022;-70
2023/05/30 05:47:13;;;;;;;13.82;3.63;;;;;;;12.68;89.74;102627.84;5181848;28;20022;-70
2023/05/30 05:49:44;;;;;;;14.93;4.30;;;;;;;12.63;89.21;102630.78;5188198;28;20195;-69
2023/05/30 05:52:16;;;;;;;12.90;3.67;;;;;;;12.66;88.65;102632.38;5185182;28;20289;-70
2023/05/30 05:54:47;;;;;;;12.30;4.60;;;;;;;12.64;88.59;102634.25;5183152;28;20033;-68
2023/05/30 05:57:19;;;;;;;13.23;4.75;;;;;;;12.72;87.39;102637.22;5187441;28;20023;-68
2023/05/30 05:59:50;;;;;;;13.05;4.20;;;;;;;12.71;86.50;102645.22;5189925;28;20493;-68
2023/05/30 06:02:21;;;;;;;17.02;4.63;;;;;;;12.76;88.04;102643.97;5186484;28;20125;-67
2023/05/30 06:04:52;;;;;;;13.93;4.50;;;;;;;12.83;87.99;102644.41;5187748;28;20040;-68
2023/05/30 06:07:24;;;;;;;11.70;4.30;;;;;;;12.82;86.73;102648.00;5179776;28;20113;-68
2023/05/30 06:09:56;;;;;;;14.73;4.70;;;;;;;12.82;86.76;102648.00;5182742;28;20034;-68
2023/05/30 06:12:27;;;;;;;10.38;3.58;;;;;;;12.83;86.56;102649.66;5187020;28;20061;-68
2023/05/30 06:14:58;;;;;;;17.88;4.63;;;;;;;12.95;87.07;102642.75;5186876;28;20097;-68
2023/05/30 06:17:29;;;;;;;12.13;4.00;;;;;;;13.06;86.61;102645.53;5188342;28;20065;-68
2023/05/30 06:20:02;;;;;;;13.35;4.50;;;;;;;13.10;84.25;102647.84;5183420;28;20053;-68
2023/05/30 06:22:33;;;;;;;14.13;4.60;;;;;;;13.09;83.88;102643.53;5191199;28;20062;-68
2023/05/30 06:25:05;;;;;;;14.32;4.93;;;;;;;13.11;82.77;102630.28;5187552;28;20468;-68
2023/05/30 06:27:37;;;;;;;10.30;4.13;;;;;;;13.18;81.51;102647.31;5180988;28;20346;-68
2023/05/30 06:30:08;;;;;;;11.68;4.10;;;;;;;13.15;82.18;102643.13;5184229;28;20034;-68
2023/05/30 06:32:40;;;;;;;13.73;4.40;;;;;;;13.17;81.51;102656.19;5188485;28;20057;-68
2023/05/30 06:35:11;;;;;;;10.45;4.22;;;;;;;13.20;80.83;102647.25;5184953;28;20081;-68
2023/05/30 06:37:42;;;;;;;10.98;3.70;;;;;;;13.29;79.71;102647.47;5188282;28;20035;-68
2023/05/30 06:40:13;;;;;;;12.00;4.75;;;;;;;13.42;79.43;102649.31;5185355;28;20065;-68
2023/05/30 06:42:45;;;;;;;12.82;4.55;;;;;;;13.48;79.26;102643.59;5188502;28;20102;-68
2023/05/30 06:45:16;;;;;;;12.65;4.40;;;;;;;13.55;77.18;102647.50;5172694;28;20288;-67
2023/05/30 06:47:47;;;;;;;13.68;4.97;;;;;;;13.65;76.73;102648.56;5182002;28;20018;-67
2023/05/30 06:50:19;;;;;;;10.48;4.53;;;;;;;13.73;76.19;102643.59;5183612;28;20049;-68
2023/05/30 06:52:50;;;;;;;13.07;4.88;;;;;;;13.60;76.49;102646.25;5183127;28;20121;-68
2023/05/30 06:55:21;;;;;;;12.75;4.18;;;;;;;13.69;75.03;102652.66;5183183;28;20038;-68
2023/05/30 06:57:53;;;;;;;15.27;4.78;;;;;;;13.92;76.32;102648.44;5183562;28;20026;-68
2023/05/30 07:00:25;;;;;;;12.02;4.30;;;;;;;13.98;74.30;102655.91;5186095;28;20030;-68
2023/05/30 07:02:56;;;;;;;14.90;4.63;;;;;;;14.14;74.47;102658.31;5179290;28;20030;-68
2023/05/30 07:05:28;;;;;;;10.02;4.15;;;;;;;14.17;72.84;102655.47;5186674;28;20040;-68
2023/05/30 07:07:59;;;;;;;10.82;5.10;;;;;;;14.28;72.71;102665.22;5181725;28;20038;-68
2023/05/30 07:10:31;;;;;;;10.45;4.18;;;;;;;14.46;71.07;102665.69;5185001;28;20073;-68
2023/05/30 07:13:02;;;;;;;11.35;4.30;;;;;;;14.73;69.44;102665.50;5181737;28;20225;-68
2023/05/30 07:15:34;;;;;;;9.10;4.25;;;;;;;14.91;68.73;102660.66;5184958;28;20373;-68
2023/05/30 07:18:05;;;;;;;9.90;4.30;;;;;;;15.24;68.33;102671.34;5182713;28;20053;-69
2023/05/30 07:20:36;;;;;;;11.18;4.20;;;;;;;15.45;66.39;102660.09;5186503;28;20026;-69
2023/05/30 07:23:07;;;;;;;12.38;4.45;;;;;;;15.32;65.95;102668.13;5186705;28;20029;-69
2023/05/30 07:25:39;;;;;;;6.97;3.78;;;;;;;15.14;63.20;102661.59;5187631;28;20019;-69
2023/05/30 07:28:11;;;;;;;10.75;3.78;;;;;;;14.99;64.61;102660.94;5182377;28;20037;-69
2023/05/30 07:30:42;;;;;;;14.18;4.88;;;;;;;14.73;64.02;102670.78;5183204;28;20384;-69
2023/05/30 07:33:13;;;;;;;9.82;4.13;;;;;;;14.69;65.64;102671.97;5179437;28;20038;-69
2023/05/30 07:35:45;;;;;;;12.05;4.32;;;;;;;14.51;66.63;102671.53;5185798;28;20097;-69
2023/05/30 07:38:16;;;;;;;9.55;4.70;;;;;;;14.59;66.94;102682.34;5186220;28;20026;-69
2023/05/30 07:40:47;;;;;;;9.20;4.50;;;;;;;14.66;66.29;102680.97;5182646;28;20031;-69
2023/05/30 07:43:19;;;;;;;12.98;4.55;;;;;;;14.87;66.59;102678.53;5186519;28;20026;-69
2023/05/30 07:45:50;;;;;;;10.98;4.97;;;;;;;15.19;64.99;102678.78;5183872;28;20034;-69
2023/05/30 07:48:23;;;;;;;12.65;4.80;;;;;;;15.55;62.74;102675.13;5183970;28;20034;-69
2023/05/30 07:50:54;;;;;;;10.73;4.65;;;;;;;15.77;61.91;102674.34;5180140;28;20030;-69
2023/05/30 07:53:26;;;;;;;15.32;4.65;;;;;;;16.00;60.93;102669.06;5181430;28;20085;-69
2023/05/30 07:55:58;;;;;;;10.75;4.85;;;;;;;16.23;59.94;102668.06;5182053;28;20022;-69
2023/05/30 07:58:29;;;;;;;11.10;4.85;;;;;;;16.19;60.56;102658.72;5182468;28;20030;-69
2023/05/30 08:01:01;;;;;;;12.32;4.60;;;;;;;16.15;60.00;102659.06;5182392;28;20098;-69
2023/05/30 08:03:32;;;;;;;11.80;4.18;;;;;;;16.01;59.20;102653.06;5179306;28;20105;-69
2023/05/30 08:06:04;;;;;;;15.02;4.63;;;;;;;15.91;59.08;102644.22;5178853;28;20033;-69
2023/05/30 08:08:35;;;;;;;9.70;4.30;;;;;;;15.82;60.18;102661.59;5177993;28;20512;-69
2023/05/30 08:11:06;;;;;;;9.90;4.60;;;;;;;15.72;60.49;102660.66;5169544;28;20023;-69
2023/05/30 08:13:38;;;;;;;11.77;4.93;;;;;;;15.60;59.47;102661.56;5180268;28;20045;-69
2023/05/30 08:16:13;;;;;;;15.07;4.78;;;;;;;15.73;60.70;102664.97;5185151;28;20093;-69
2023/05/30 08:18:45;;;;;;;12.10;4.38;;;;;;;15.94;59.29;102658.97;5179560;28;20088;-69
2023/05/30 08:21:16;;;;;;;12.95;4.93;;;;;;;16.29;59.13;102657.00;5179928;28;20029;-69
2023/05/30 08:23:48;;;;;;;12.93;4.40;;;;;;;16.63;57.38;102649.00;5181458;28;20046;-69
2023/05/30 08:26:20;;;;;;;11.32;3.95;;;;;;;16.73;55.46;102652.56;5182312;28;20911;-69
2023/05/30 08:28:52;;;;;;;10.00;4.22;;;;;;;16.84;55.22;102654.34;5180771;28;20101;-69
2023/05/30 08:31:23;;;;;;;10.00;4.50;;;;;;;17.12;55.45;102655.53;5180082;28;20084;-69
2023/05/30 08:33:54;;;;;;;9.45;4.63;;;;;;;17.21;54.15;102652.09;5176975;28;20028;-69
2023/05/30 08:36:26;;;;;;;10.63;4.40;;;;;;;17.24;53.12;102649.22;5181178;28;20494;-69
2023/05/30 08:38:57;;;;;;;13.40;4.53;;;;;;;17.27;52.68;102650.75;5184343;28;20053;-69
2023/05/30 08:41:30;;;;;;;10.02;4.38;;;;;;;17.32;52.05;102645.06;5182237;28;20026;-69
2023/05/30 08:44:01;;;;;;;10.48;4.25;;;;;;;17.38;51.56;102648.00;5180358;28;20528;-69
2023/05/30 08:46:35;;;;;;;10.65;4.63;;;;;;;17.61;52.50;102646.03;5181217;28;20108;-69
2023/05/30 08:49:11;;;;;;;8.57;4.45;;;;;;;17.65;52.35;102644.84;5180478;28;20042;-69
2023/05/30 08:51:43;;;;;;;9.43;4.88;;;;;;;17.81;51.71;102631.13;5179277;28;20121;-69
2023/05/30 08:54:22;;;;;;;8.13;4.38;;;;;;;17.95;51.37;102633.38;5179532;28;20164;-69
2023/05/30 08:57:06;;;;;;;10.65;4.57;;;;;;;18.12;51.27;102629.25;5182668;28;20026;-69
2023/05/30 08:59:38;;;;;;;11.27;5.03;;;;;;;18.02;50.42;102638.97;5163682;28;20890;-69
2023/05/30 09:02:12;;;;;;;10.38;4.80;;;;;;;17.99;50.31;102628.63;5179612;28;20015;-69
2023/05/30 09:04:43;;;;;;;8.35;4.53;;;;;;;18.09;50.02;102636.63;5182508;28;20030;-69
2023/05/30 09:07:15;;;;;;;10.43;4.53;;;;;;;18.15;49.77;102622.84;5178255;28;20038;-69
2023/05/30 09:09:48;;;;;;;8.68;4.60;;;;;;;18.19;48.62;102627.72;5181956;28;20042;-69
2023/05/30 09:12:19;;;;;;;8.98;4.13;;;;;;;18.26;49.19;102613.91;5179223;28;20070;-70
2023/05/30 09:14:51;;;;;;;9.82;5.13;;;;;;;18.48;49.18;102629.56;5179996;28;20473;-68
2023/05/30 09:17:22;;;;;;;9.60;4.72;;;;;;;18.44;48.10;102631.66;5180691;28;20030;-68
2023/05/30 09:19:54;;;;;;;12.30;4.73;;;;;;;18.62;48.36;102621.19;5181464;28;20542;-69
2023/05/30 09:22:27;;;;;;;10.75;5.03;;;;;;;18.68;48.99;102620.66;5176805;28;20030;-69
2023/05/30 09:25:00;;;;;;;11.43;5.00;;;;;;;18.77;48.41;102619.00;5176346;28;20051;-69
2023/05/30 09:27:35;;;;;;;11.88;5.03;;;;;;;18.94;48.57;102622.75;5176622;28;20038;-69
2023/05/30 09:30:09;;;;;;;10.15;4.47;;;;;;;19.04;47.05;102617.44;5181387;28;20030;-69
2023/05/30 09:32:40;;;;;;;11.32;4.97;;;;;;;18.96;47.32;102608.34;5185519;28;20034;-69
2023/05/30 09:35:12;;;;;;;11.43;4.55;;;;;;;19.28;47.45;102607.19;5181600;28;20038;-69
2023/05/30 09:37:43;;;;;;;10.15;5.40;;;;;;;19.18;46.56;102611.69;5184540;28;20035;-69
2023/05/30 09:40:17;;;;;;;10.77;5.07;;;;;;;19.27;48.69;102610.81;5186895;28;20038;-69
2023/05/30 09:42:50;;;;;;;9.80;5.10;;;;;;;19.27;45.98;102604.66;5183427;28;20502;-69
2023/05/30 09:45:23;;;;;;;10.25;5.53;;;;;;;19.28;45.63;102601.00;5182819;28;20038;-69
2023/05/30 09:47:55;;;;;;;11.52;5.03;;;;;;;19.41;46.55;102601.53;5182180;28;20042;-69
2023/05/30 09:50:26;;;;;;;14.23;5.50;;;;;;;19.41;45.88;102606.84;5181160;28;20498;-69
2023/05/30 09:52:59;;;;;;;12.80;5.70;;;;;;;19.49;46.08;102598.16;5181468;28;20431;-67
2023/05/30 09:55:30;;;;;;;;;;;;;;;20.40;45.57;102594.56;5186147;28;20108;-68
2023/05/30 09:58:02;;;;;;;8.50;5.18;;;;;;;19.78;46.43;102595.41;5181796;28;19914;-68
2023/05/30 10:00:33;;;;;;;11.57;5.93;;;;;;;20.03;45.24;102592.00;5182510;28;20486;-69
2023/05/30 10:03:05;;;;;;;17.20;6.23;;;;;;;20.04;45.64;102593.72;5182382;28;20022;-69
2023/05/30 10:05:36;;;;;;;14.00;6.23;;;;;;;19.96;44.55;102592.75;5183217;28;20031;-69
2023/05/30 10:08:10;;;;;;;13.45;6.25;;;;;;;20.06;45.33;102597.03;5170156;28;20481;-69
2023/05/30 10:10:41;;;;;;;11.85;5.53;;;;;;;19.86;44.60;102590.16;5180566;28;20166;-69
2023/05/30 10:13:12;;;;;;;12.32;5.65;;;;;;;20.15;44.77;102585.50;5161190;28;20030;-69
2023/05/30 10:15:44;;;;;;;10.60;5.67;;;;;;;20.39;43.82;102582.25;5179775;28;20038;-69
2023/05/30 10:18:16;;;;;;;11.20;5.77;;;;;;;20.45;43.25;102588.75;5181346;28;20019;-69
2023/05/30 10:20:48;;;;;;;10.43;5.30;;;;;;;20.54;43.42;102582.56;5180835;28;20073;-69
2023/05/30 10:23:20;;;;;;;11.32;5.90;;;;;;;20.54;43.48;102579.91;5180493;28;20125;-69
2023/05/30 10:25:54;;;;;;;14.37;5.83;;;;;;;20.47;43.44;102588.63;5182781;28;20026;-69
2023/05/30 10:28:28;;;;;;;10.63;5.50;;;;;;;20.57;43.44;102592.94;5179625;28;20112;-69
2023/05/30 10:31:03;;;;;;;12.98;6.25;;;;;;;20.50;43.26;102586.53;5179678;28;20149;-69
2023/05/30 10:33:36;;;;;;;10.20;5.60;;;;;;;20.62;43.65;102593.28;5179730;28;20062;-69
2023/05/30 10:36:08;;;;;;;10.43;5.22;;;;;;;20.59;43.42;102590.94;5177215;28;20027;-69
2023/05/30 10:38:47;;;;;;;11.20;5.60;;;;;;;20.86;43.51;102578.47;5182081;28;20042;-69
2023/05/30 10:41:36;;;;;;;10.73;6.22;;;;;;;21.11;43.22;102577.66;5181262;28;20034;-69
2023/05/30 10:44:14;;;;;;;9.75;5.85;;;;;;;21.24;42.64;102579.06;5181095;28;20026;-69
2023/05/30 10:47:18;;;;;;;12.27;6.68;;;;;;;21.64;42.77;102573.13;5176169;28;20034;-69
2023/05/30 10:49:54;;;;;;;10.98;6.20;;;;;;;21.31;41.75;102574.78;5183503;28;20069;-69
2023/05/30 10:52:33;;;;;;;11.18;6.53;;;;;;;21.41;41.58;102570.19;5180935;28;20497;-69
2023/05/30 10:55:11;;;;;;;10.35;5.35;;;;;;;21.47;42.24;102561.53;5179914;28;20381;-69
2023/05/30 10:57:42;;;;;;;12.30;5.90;;;;;;;21.51;42.07;102549.56;5182728;28;20046;-69
2023/05/30 11:00:20;;;;;;;12.77;4.80;;;;;;;21.74;41.07;102557.78;5179658;28;20041;-69
2023/05/30 11:02:53;;;;;;;9.55;4.90;;;;;;;21.60;40.85;102555.78;5180761;28;20046;-69
2023/05/30 11:05:31;;;;;;;;;;;;;;;22.66;40.90;102547.94;5182590;28;20026;-69
2023/05/30 11:08:02;;;;;;;10.32;5.32;;;;;;;22.02;40.70;102547.72;5181732;28;19914;-69
2023/05/30 11:10:35;;;;;;;15.83;6.43;;;;;;;22.08;40.67;102555.03;5180343;28;20038;-69
2023/05/30 11:13:08;;;;;;;10.80;6.43;;;;;;;21.95;38.57;102554.69;5179992;28;20032;-69
2023/05/30 11:15:47;;;;;;;8.20;5.22;;;;;;;22.16;40.35;102556.94;5180704;28;20026;-69
2023/05/30 11:18:19;;;;;;;11.13;5.10;;;;;;;22.00;39.77;102543.53;5179463;28;20045;-69
2023/05/30 11:20:52;;;;;;;7.10;4.85;;;;;;;22.10;39.20;102541.56;5179957;28;20026;-70
2023/05/30 11:23:24;;;;;;;7.90;4.85;;;;;;;22.34;39.56;102551.44;5190457;28;20058;-69
2023/05/30 11:25:58;;;;;;;9.90;5.50;;;;;;;22.24;38.82;102553.44;5187252;28;20026;-69
2023/05/30 11:28:35;;;;;;;10.05;4.80;;;;;;;22.42;39.64;102542.59;5190265;28;20085;-69
2023/05/30 11:31:17;;;;;;;9.85;4.47;;;;;;;22.62;39.18;102535.94;5190654;28;20039;-70
2023/05/30 11:33:51;;;;;;;9.67;4.90;;;;;;;22.41;38.57;102527.56;5189667;28;20026;-69
2023/05/30 11:36:22;;;;;;;13.25;4.93;;;;;;;22.38;40.10;102534.06;5188251;28;20301;-69
2023/05/30 11:38:56;;;;;;;11.03;4.90;;;;;;;22.53;38.51;102527.06;5189407;28;20511;-69
2023/05/30 11:41:28;;;;;;;9.45;4.90;;;;;;;22.42;38.24;102530.06;5188192;28;20038;-69